createdAt,value
2018-07-02T00:01:29.519Z,99.90
2018-07-02T00:04:01.172Z,99.90
2018-07-02T00:06:48.443Z,99.90
2018-07-02T00:09:19.592Z,99.90
2018-07-02T00:11:51.572Z,99.90
2018-07-02T00:14:22.952Z,99.90
2018-07-02T00:16:55.158Z,99.90
2018-07-02T00:19:26.655Z,99.90
2018-07-02T00:21:57.642Z,99.90
2018-07-02T00:24:28.644Z,99.90
2018-07-02T00:26:59.924Z,99.90
2018-07-02T00:29:32.058Z,99.90
2018-07-02T00:32:03.220Z,99.90
2018-07-02T00:34:36.906Z,99.90
2018-07-02T00:37:08.345Z,99.90
2018-07-02T00:39:39.673Z,99.90
2018-07-02T00:42:10.887Z,99.90
2018-07-02T00:44:41.885Z,99.90
2018-07-02T00:47:13.180Z,99.90
2018-07-02T00:49:44.801Z,99.90
2018-07-02T00:52:16.703Z,99.90
2018-07-02T00:54:48.068Z,99.90
2018-07-02T00:57:19.255Z,99.90
2018-07-02T00:59:51.248Z,99.90
2018-07-02T01:02:22.817Z,99.90
2018-07-02T01:04:54.309Z,99.90
2018-07-02T01:07:26.418Z,99.90
2018-07-02T01:09:57.864Z,99.90
2018-07-02T01:12:29.052Z,99.90
2018-07-02T01:15:00.223Z,99.90
2018-07-02T01:17:31.817Z,99.90
2018-07-02T01:20:02.939Z,99.90
2018-07-02T01:22:34.174Z,99.90
2018-07-02T01:25:06.302Z,99.90
2018-07-02T01:27:37.928Z,99.90
2018-07-02T01:30:09.314Z,99.90
2018-07-02T01:32:40.692Z,99.90
2018-07-02T01:37:43.676Z,99.90
2018-07-02T01:40:15.934Z,99.90
2018-07-02T01:42:47.132Z,99.90
2018-07-02T01:45:19.003Z,99.90
2018-07-02T01:47:50.240Z,99.90
2018-07-02T01:50:21.380Z,99.90
2018-07-02T01:52:52.928Z,99.90
2018-07-02T01:55:25.088Z,99.90
2018-07-02T01:57:56.823Z,99.90
2018-07-02T02:00:28.805Z,99.90
2018-07-02T02:02:59.952Z,99.90
2018-07-02T02:05:31.854Z,99.90
2018-07-02T02:08:03.023Z,99.90
2018-07-02T02:10:34.276Z,99.90
2018-07-02T02:13:05.495Z,99.90
2018-07-02T02:15:36.450Z,99.90
2018-07-02T02:18:07.852Z,99.90
2018-07-02T02:20:39.475Z,99.90
2018-07-02T02:23:11.096Z,99.90
2018-07-02T02:25:42.188Z,99.90
2018-07-02T02:28:13.280Z,99.90
2018-07-02T02:30:44.239Z,99.90
2018-07-02T02:33:15.664Z,99.90
2018-07-02T02:35:47.538Z,99.90
2018-07-02T02:38:18.785Z,99.90
2018-07-02T02:40:49.916Z,99.90
2018-07-02T02:43:21.220Z,99.90
2018-07-02T02:45:53.445Z,99.90
2018-07-02T02:48:24.593Z,99.90
2018-07-02T02:50:56.038Z,99.90
2018-07-02T02:53:27.204Z,99.90
2018-07-02T02:55:58.440Z,99.90
2018-07-02T02:58:29.873Z,99.90
2018-07-02T03:01:01.870Z,99.90
2018-07-02T03:03:32.985Z,99.90
2018-07-02T03:06:04.288Z,99.90
2018-07-02T03:08:35.400Z,99.90
2018-07-02T03:11:06.837Z,99.90
2018-07-02T03:13:38.115Z,99.90
2018-07-02T03:16:09.694Z,99.90
2018-07-02T03:18:41.652Z,99.90
2018-07-02T03:21:14.932Z,99.90
2018-07-02T03:23:46.111Z,99.90
2018-07-02T03:26:17.094Z,99.90
2018-07-02T03:28:48.322Z,99.90
2018-07-02T03:31:19.204Z,99.90
2018-07-02T03:33:50.468Z,99.90
2018-07-02T03:36:21.389Z,99.90
2018-07-02T03:38:52.495Z,99.90
2018-07-02T03:41:23.537Z,99.90
2018-07-02T03:43:55.534Z,99.90
2018-07-02T03:46:26.806Z,99.90
2018-07-02T03:48:58.997Z,99.90
2018-07-02T03:51:30.221Z,99.90
2018-07-02T03:54:01.443Z,99.90
2018-07-02T03:56:32.782Z,99.90
2018-07-02T03:59:04.125Z,99.90
2018-07-02T04:01:36.552Z,99.90
2018-07-02T04:04:08.284Z,99.90
2018-07-02T04:06:39.541Z,99.90
2018-07-02T04:09:13.768Z,99.90
2018-07-02T04:11:44.820Z,99.90
2018-07-02T04:19:16.783Z,99.90
2018-07-02T04:21:47.877Z,99.90
2018-07-02T04:24:19.938Z,99.90
2018-07-02T04:26:51.691Z,99.90
2018-07-02T04:29:23.879Z,99.90
2018-07-02T04:31:55.152Z,99.90
2018-07-02T04:34:26.564Z,99.90
2018-07-02T04:36:57.806Z,99.90
2018-07-02T04:39:29.056Z,99.90
2018-07-02T04:42:00.615Z,99.90
2018-07-02T04:44:31.724Z,99.90
2018-07-02T04:47:02.978Z,99.90
2018-07-02T04:49:34.467Z,99.90
2018-07-02T04:52:07.247Z,99.90
2018-07-02T04:54:39.360Z,99.90
2018-07-02T04:59:41.736Z,99.90
2018-07-02T05:02:12.929Z,99.90
2018-07-02T05:04:44.219Z,99.90
2018-07-02T05:07:16.129Z,99.90
2018-07-02T05:09:47.366Z,99.90
2018-07-02T05:12:18.536Z,99.90
2018-07-02T05:14:50.601Z,99.90
2018-07-02T05:17:21.673Z,99.90
2018-07-02T05:19:52.846Z,99.90
2018-07-02T05:22:24.609Z,99.90
2018-07-02T05:24:55.770Z,99.90
2018-07-02T05:27:27.129Z,99.90
2018-07-02T05:29:58.228Z,99.90
2018-07-02T05:32:29.615Z,99.90
2018-07-02T05:35:00.913Z,99.90
2018-07-02T05:37:32.279Z,99.90
2018-07-02T05:40:03.472Z,99.90
2018-07-02T05:42:34.472Z,99.90
2018-07-02T05:47:38.238Z,99.90
2018-07-02T05:50:09.763Z,99.90
2018-07-02T05:52:41.435Z,99.90
2018-07-02T05:55:13.290Z,99.90
2018-07-02T05:57:44.731Z,99.90
2018-07-02T06:00:17.324Z,99.90
2018-07-02T06:02:49.456Z,99.90
2018-07-02T06:05:20.856Z,99.90
2018-07-02T06:07:52.221Z,99.90
2018-07-02T06:10:24.104Z,99.90
2018-07-02T06:12:55.677Z,99.90
2018-07-02T06:15:28.200Z,99.90
2018-07-02T06:18:00.538Z,99.90
2018-07-02T06:20:31.889Z,99.90
2018-07-02T06:23:03.486Z,99.90
2018-07-02T06:25:35.184Z,99.90
2018-07-02T06:30:38.361Z,99.90
2018-07-02T06:33:10.048Z,99.90
2018-07-02T06:35:41.657Z,99.90
2018-07-02T06:40:45.769Z,99.90
2018-07-02T06:43:18.370Z,98.50
2018-07-02T06:45:51.717Z,97.00
2018-07-02T06:48:23.943Z,95.10
2018-07-02T06:50:56.108Z,93.80
2018-07-02T06:53:27.345Z,93.00
2018-07-02T06:55:59.088Z,92.40
2018-07-02T06:58:31.626Z,90.40
2018-07-02T07:01:03.234Z,90.20
2018-07-02T07:03:34.702Z,89.30
2018-07-02T07:06:07.089Z,87.60
2018-07-02T07:08:41.912Z,88.30
2018-07-02T07:11:20.747Z,88.40
2018-07-02T07:13:53.669Z,85.60
2018-07-02T07:16:27.315Z,85.30
2018-07-02T07:18:59.429Z,86.00
2018-07-02T07:21:31.983Z,88.40
2018-07-02T07:24:04.654Z,87.60
2018-07-02T07:26:37.355Z,85.70
2018-07-02T07:29:08.753Z,85.00
2018-07-02T07:31:43.547Z,83.90
2018-07-02T07:34:17.100Z,86.10
2018-07-02T07:36:49.404Z,88.00
2018-07-02T07:39:22.101Z,87.40
2018-07-02T07:41:55.840Z,87.80
2018-07-02T07:44:29.939Z,86.30
2018-07-02T07:47:02.436Z,82.00
2018-07-02T07:49:35.287Z,82.60
2018-07-02T07:52:08.029Z,79.80
2018-07-02T07:54:40.676Z,77.10
2018-07-02T07:57:13.799Z,75.40
2018-07-02T07:59:45.380Z,73.90
2018-07-02T08:02:17.517Z,72.90
2018-07-02T08:04:49.850Z,69.90
2018-07-02T08:07:21.769Z,70.00
2018-07-02T08:09:55.179Z,65.40
2018-07-02T08:12:27.144Z,69.90
2018-07-02T08:14:59.104Z,69.50
2018-07-02T08:17:30.861Z,68.80
2018-07-02T08:20:02.483Z,66.20
2018-07-02T08:22:34.970Z,69.80
2018-07-02T08:25:07.838Z,67.90
2018-07-02T08:30:11.600Z,64.80
2018-07-02T08:32:42.888Z,64.10
2018-07-02T08:37:45.875Z,61.00
2018-07-02T08:40:17.776Z,62.30
2018-07-02T08:42:49.599Z,66.30
2018-07-02T08:45:20.956Z,63.30
2018-07-02T08:47:52.614Z,63.10
2018-07-02T08:50:23.964Z,60.20
2018-07-02T08:55:28.343Z,58.10
2018-07-02T08:58:00.752Z,57.10
2018-07-02T09:00:32.256Z,56.20
2018-07-02T09:03:03.549Z,55.40
2018-07-02T09:05:35.086Z,54.20
2018-07-02T09:08:07.099Z,53.60
2018-07-02T09:10:38.534Z,55.80
2018-07-02T09:13:10.069Z,54.90
2018-07-02T09:15:41.889Z,55.40
2018-07-02T09:18:13.240Z,54.40
2018-07-02T09:20:45.407Z,52.20
2018-07-02T09:23:16.653Z,53.60
2018-07-02T09:25:47.577Z,53.20
2018-07-02T09:28:18.379Z,53.60
2018-07-02T09:30:49.648Z,52.30
2018-07-02T09:33:22.129Z,51.40
2018-07-02T09:35:53.101Z,50.50
2018-07-02T09:38:24.599Z,49.40
2018-07-02T09:40:56.316Z,48.60
2018-07-02T09:43:27.313Z,47.00
2018-07-02T09:45:58.466Z,46.60
2018-07-02T09:48:29.454Z,45.00
2018-07-02T09:51:01.369Z,47.30
2018-07-02T09:53:33.640Z,47.90
2018-07-02T09:56:05.387Z,46.00
2018-07-02T09:58:37.402Z,44.60
2018-07-02T10:01:09.279Z,43.60
2018-07-02T10:03:40.735Z,43.20
2018-07-02T10:06:12.608Z,44.70
2018-07-02T10:08:45.160Z,45.40
2018-07-02T10:11:18.744Z,46.10
2018-07-02T10:13:53.207Z,44.80
2018-07-02T10:16:24.399Z,45.00
2018-07-02T10:18:56.484Z,47.20
2018-07-02T10:21:33.399Z,45.60
2018-07-02T10:24:05.442Z,46.90
2018-07-02T10:26:39.781Z,44.20
2018-07-02T10:29:13.201Z,45.60
2018-07-02T10:31:45.349Z,45.00
2018-07-02T10:34:18.347Z,44.10
2018-07-02T10:36:50.892Z,43.90
2018-07-02T10:39:24.697Z,43.20
2018-07-02T10:41:57.421Z,44.10
2018-07-02T10:44:29.633Z,43.00
2018-07-02T10:47:04.223Z,43.20
2018-07-02T10:49:36.843Z,45.10
2018-07-02T10:52:09.329Z,44.00
2018-07-02T10:54:40.528Z,42.20
2018-07-02T10:57:12.061Z,42.90
2018-07-02T10:59:44.142Z,43.90
2018-07-02T11:02:17.016Z,45.10
2018-07-02T11:04:49.387Z,46.10
2018-07-02T11:07:20.975Z,44.50
2018-07-02T11:09:52.858Z,43.40
2018-07-02T11:12:25.381Z,43.00
2018-07-02T11:14:57.943Z,44.70
2018-07-02T11:17:29.545Z,43.90
2018-07-02T11:20:03.134Z,43.40
2018-07-02T11:22:35.783Z,42.50
2018-07-02T11:25:08.176Z,44.40
2018-07-02T11:27:40.156Z,43.00
2018-07-02T11:30:13.929Z,47.00
2018-07-02T11:32:46.846Z,46.60
2018-07-02T11:35:18.693Z,48.90
2018-07-02T11:42:53.300Z,49.90
2018-07-02T11:45:26.182Z,48.40
2018-07-02T11:47:59.007Z,47.60
2018-07-02T11:50:31.678Z,46.90
2018-07-02T11:53:03.736Z,47.80
2018-07-02T11:55:34.953Z,46.00
2018-07-02T11:58:06.621Z,46.70
2018-07-02T12:00:38.736Z,47.40
2018-07-02T12:03:11.060Z,46.40
2018-07-02T12:05:45.113Z,46.40
2018-07-02T12:10:52.230Z,44.30
2018-07-02T12:13:26.679Z,45.20
2018-07-02T12:16:02.993Z,47.20
2018-07-02T12:18:35.457Z,48.60
2018-07-02T12:21:09.643Z,49.90
2018-07-02T12:23:44.027Z,47.70
2018-07-02T12:26:18.863Z,45.90
2018-07-02T12:28:51.934Z,44.70
2018-07-02T12:31:25.868Z,46.20
2018-07-02T12:34:22.263Z,46.90
2018-07-02T12:36:56.335Z,45.80
2018-07-02T12:39:33.193Z,46.80
2018-07-02T12:42:05.556Z,47.60
2018-07-02T12:44:38.263Z,47.50
2018-07-02T12:47:10.904Z,46.10
2018-07-02T12:49:43.633Z,46.20
2018-07-02T12:52:19.611Z,44.70
2018-07-02T12:55:02.452Z,43.50
2018-07-02T12:57:47.170Z,42.50
2018-07-02T13:00:22.263Z,40.80
2018-07-02T13:02:59.156Z,40.90
2018-07-02T13:05:38.325Z,41.90
2018-07-02T13:10:44.412Z,44.00
2018-07-02T13:13:20.076Z,45.20
2018-07-02T13:15:53.171Z,44.70
2018-07-02T13:18:25.288Z,43.40
2018-07-02T13:20:57.067Z,45.70
2018-07-02T13:23:29.518Z,47.00
2018-07-02T13:26:03.978Z,45.30
2018-07-02T13:28:38.419Z,45.10
2018-07-02T13:31:11.388Z,45.20
2018-07-02T13:33:44.996Z,43.10
2018-07-02T13:36:20.187Z,44.30
2018-07-02T13:38:54.563Z,45.80
2018-07-02T13:41:36.628Z,45.80
2018-07-02T13:44:11.408Z,44.40
2018-07-02T13:46:46.473Z,43.40
2018-07-02T13:52:05.780Z,43.80
2018-07-02T13:54:43.579Z,44.70
2018-07-02T13:57:15.822Z,45.50
2018-07-02T13:59:48.431Z,44.80
2018-07-02T14:02:20.070Z,47.30
2018-07-02T14:04:52.537Z,49.40
2018-07-02T14:07:24.504Z,48.90
2018-07-02T14:09:57.465Z,48.30
2018-07-02T14:12:30.270Z,48.80
2018-07-02T14:15:01.734Z,47.90
2018-07-02T14:17:34.661Z,48.90
2018-07-02T14:20:10.646Z,47.60
2018-07-02T14:22:45.091Z,46.90
2018-07-02T14:25:20.990Z,45.80
2018-07-02T14:27:55.980Z,46.20
2018-07-02T14:30:28.429Z,47.10
2018-07-02T14:33:01.924Z,46.70
2018-07-02T14:35:35.838Z,46.30
2018-07-02T14:38:07.240Z,45.80
2018-07-02T14:40:41.183Z,47.40
2018-07-02T14:43:12.853Z,47.10
2018-07-02T14:45:45.369Z,47.80
2018-07-02T14:48:18.434Z,48.70
2018-07-02T14:50:52.098Z,47.60
2018-07-02T14:53:23.907Z,48.20
2018-07-02T14:55:57.913Z,49.20
2018-07-02T14:58:30.637Z,50.00
2018-07-02T15:01:08.521Z,49.80
2018-07-02T15:03:41.209Z,51.00
2018-07-02T15:08:49.082Z,53.10
2018-07-02T15:11:25.183Z,50.40
2018-07-02T15:13:58.032Z,56.30
2018-07-02T15:16:31.083Z,61.10
2018-07-02T15:19:02.881Z,64.50
2018-07-02T15:21:36.000Z,65.30
2018-07-02T15:24:09.011Z,65.50
2018-07-02T15:26:42.051Z,66.60
2018-07-02T15:29:17.105Z,64.80
2018-07-02T15:31:49.489Z,65.50
2018-07-02T15:34:21.462Z,66.80
2018-07-02T15:39:25.469Z,68.80
2018-07-02T15:41:58.747Z,71.40
2018-07-02T15:44:31.596Z,73.30
2018-07-02T15:47:05.070Z,74.20
2018-07-02T15:49:36.908Z,76.30
2018-07-02T15:52:08.537Z,78.00
2018-07-02T15:54:39.869Z,80.40
2018-07-02T15:57:11.148Z,81.40
2018-07-02T15:59:43.328Z,81.60
2018-07-02T16:02:15.735Z,82.30
2018-07-02T16:04:49.548Z,83.10
2018-07-02T16:07:21.102Z,84.00
2018-07-02T16:09:53.333Z,84.20
2018-07-02T16:12:24.603Z,85.70
2018-07-02T16:14:56.468Z,87.40
2018-07-02T16:17:28.348Z,88.70
2018-07-02T16:19:59.619Z,90.30
2018-07-02T16:22:30.930Z,89.60
2018-07-02T16:25:02.370Z,90.60
2018-07-02T16:27:34.420Z,91.50
2018-07-02T16:30:09.449Z,90.70
2018-07-02T16:32:42.336Z,90.90
2018-07-02T16:35:13.708Z,92.10
2018-07-02T16:37:45.560Z,92.40
2018-07-02T16:40:16.721Z,93.00
2018-07-02T16:42:48.037Z,93.80
2018-07-02T16:45:19.551Z,94.20
2018-07-02T16:47:53.637Z,94.30
2018-07-02T16:50:25.792Z,94.60
2018-07-02T16:52:57.586Z,95.40
2018-07-02T16:55:32.143Z,95.40
2018-07-02T16:58:07.827Z,95.50
2018-07-02T17:00:40.913Z,96.40
2018-07-02T17:03:13.442Z,96.20
2018-07-02T17:05:44.873Z,96.80
2018-07-02T17:08:16.457Z,97.20
2018-07-02T17:10:47.990Z,97.40
2018-07-02T17:13:19.612Z,98.10
2018-07-02T17:15:52.251Z,98.70
2018-07-02T17:25:58.796Z,99.10
2018-07-02T17:28:32.066Z,99.90
2018-07-02T17:31:03.685Z,99.90
2018-07-02T17:33:37.789Z,99.90
2018-07-02T17:36:11.439Z,99.90
2018-07-02T17:38:42.948Z,99.90
2018-07-02T17:41:15.601Z,99.90
2018-07-02T17:43:48.091Z,99.90
2018-07-02T17:46:26.385Z,99.90
2018-07-02T17:48:59.714Z,99.90
2018-07-02T17:51:34.371Z,99.90
2018-07-02T17:54:08.132Z,99.90
2018-07-02T18:01:44.842Z,99.90
2018-07-02T18:04:18.297Z,99.90
2018-07-02T18:06:50.643Z,99.90
2018-07-02T18:11:54.361Z,99.90
2018-07-02T18:14:28.651Z,99.90
2018-07-02T18:17:01.023Z,99.90
2018-07-02T18:19:33.447Z,99.90
2018-07-02T18:22:06.358Z,99.90
2018-07-02T18:24:39.172Z,99.90
2018-07-02T18:27:12.463Z,99.90
2018-07-02T18:29:46.661Z,99.90
2018-07-02T18:32:20.131Z,99.90
2018-07-02T18:34:53.106Z,99.90
2018-07-02T18:37:26.973Z,99.90
2018-07-02T18:40:01.228Z,99.90
2018-07-02T18:42:35.201Z,99.90
2018-07-02T18:45:08.689Z,99.90
2018-07-02T18:47:43.775Z,99.90
2018-07-02T18:50:17.563Z,99.90
2018-07-02T18:52:52.026Z,99.90
2018-07-02T18:57:58.472Z,99.90
2018-07-02T19:00:35.238Z,99.90
2018-07-02T19:03:08.452Z,99.90
2018-07-02T19:05:42.282Z,99.90
2018-07-02T19:08:16.187Z,99.90
2018-07-02T19:15:54.160Z,99.90
2018-07-02T19:18:28.061Z,99.90
2018-07-02T19:21:01.904Z,99.90
2018-07-02T19:23:35.147Z,99.90
2018-07-02T19:26:08.630Z,99.90
2018-07-02T19:28:41.545Z,99.90
2018-07-02T19:33:48.113Z,99.90
2018-07-02T19:36:21.019Z,99.90
2018-07-02T19:38:54.808Z,99.90
2018-07-02T19:41:27.981Z,99.90
2018-07-02T19:44:03.596Z,99.90
2018-07-02T19:46:38.014Z,99.90
2018-07-02T19:49:11.000Z,99.90
2018-07-02T19:51:44.263Z,99.90
2018-07-02T19:54:18.055Z,99.90
2018-07-02T19:56:53.735Z,99.90
2018-07-02T19:59:27.747Z,99.90
2018-07-02T20:02:00.850Z,99.90
2018-07-02T20:04:34.589Z,99.90
2018-07-02T20:07:08.568Z,99.90
2018-07-02T20:09:42.495Z,99.90
2018-07-02T20:14:48.847Z,99.90
2018-07-02T20:17:24.628Z,99.90
2018-07-02T20:20:00.815Z,99.90
2018-07-02T20:22:34.595Z,99.90
2018-07-02T20:25:08.478Z,99.90
2018-07-02T20:27:41.852Z,99.90
2018-07-02T20:30:15.812Z,99.90
2018-07-02T20:32:52.078Z,99.90
2018-07-02T20:35:27.812Z,99.90
2018-07-02T20:38:01.895Z,99.90
2018-07-02T20:43:08.209Z,99.90
2018-07-02T20:48:15.521Z,99.90
2018-07-02T20:50:49.972Z,99.90
2018-07-02T20:53:23.523Z,99.90
2018-07-02T20:55:58.143Z,99.90
2018-07-02T20:58:31.814Z,99.90
2018-07-02T21:01:06.303Z,99.90
2018-07-02T21:03:39.956Z,99.90
2018-07-02T21:06:15.426Z,99.90
2018-07-02T21:08:51.072Z,99.90
2018-07-02T21:11:24.778Z,99.90
2018-07-02T21:16:29.314Z,99.90
2018-07-02T21:19:02.175Z,99.90
2018-07-02T21:21:35.622Z,99.90
2018-07-02T21:24:09.662Z,99.90
2018-07-02T21:26:43.584Z,99.90
2018-07-02T21:29:15.547Z,99.90
2018-07-02T21:31:47.449Z,99.90
2018-07-02T21:34:21.086Z,99.90
2018-07-02T21:36:53.863Z,99.90
2018-07-02T21:39:26.483Z,99.90
2018-07-02T21:42:02.027Z,99.90
2018-07-02T21:44:34.666Z,99.90
2018-07-02T21:47:07.751Z,99.90
2018-07-02T21:49:40.348Z,99.90
2018-07-02T21:52:14.071Z,99.90
2018-07-02T21:54:45.884Z,99.90
2018-07-02T21:57:17.731Z,99.90
2018-07-02T21:59:51.929Z,99.90
2018-07-02T22:02:24.982Z,99.90
2018-07-02T22:04:57.915Z,99.90
2018-07-02T22:07:29.393Z,99.90
2018-07-02T22:10:01.383Z,99.90
2018-07-02T22:12:33.065Z,99.90
2018-07-02T22:17:38.314Z,99.90
2018-07-02T22:20:10.998Z,99.90
2018-07-02T22:27:47.141Z,99.90
2018-07-02T22:30:18.631Z,99.90
2018-07-02T22:32:51.874Z,99.90
2018-07-02T22:35:23.797Z,99.90
2018-07-02T22:37:55.580Z,99.90
2018-07-02T22:40:27.738Z,99.90
2018-07-02T22:42:59.939Z,99.90
2018-07-02T22:45:32.654Z,99.90
2018-07-02T22:48:03.547Z,99.90
2018-07-02T22:50:35.680Z,99.90
2018-07-02T22:53:07.273Z,99.90
2018-07-02T22:55:54.375Z,99.90
2018-07-02T22:58:25.839Z,99.90
2018-07-02T23:00:57.510Z,99.90
2018-07-02T23:03:29.993Z,99.90
2018-07-02T23:06:01.267Z,99.90
2018-07-02T23:08:32.539Z,99.90
2018-07-02T23:11:03.744Z,99.90
2018-07-02T23:13:34.965Z,99.90
2018-07-02T23:16:06.287Z,99.90
2018-07-02T23:18:37.544Z,99.90
2018-07-02T23:23:39.516Z,99.90
2018-07-02T23:26:10.696Z,99.90
2018-07-02T23:28:42.976Z,99.90
2018-07-02T23:31:14.632Z,99.90
2018-07-02T23:33:45.820Z,99.90
2018-07-02T23:36:16.687Z,99.90
2018-07-02T23:38:47.744Z,99.90
2018-07-02T23:41:18.942Z,99.90
2018-07-02T23:43:50.094Z,99.90
2018-07-02T23:46:22.680Z,99.90
2018-07-02T23:48:53.999Z,99.90
2018-07-02T23:51:25.184Z,99.90
2018-07-02T23:53:56.659Z,99.90
2018-07-02T23:56:27.854Z,99.90
2018-07-02T23:58:58.956Z,99.90
